Flight Number: EUR1588 Duration: 2:45
Departure: Amsterdam Schiphol (EHAM) at 18:15 Distance: 1016 Nm
Arrival: Malaga (LEMG) at 21:00 Equipment: A321

Weather Information
Amsterdam Airport Schiphol, Netherlands (EHAM) 52-18N 004-46E -2M May 23, 2018 - 08:25 PM EDT / 2018.05.24 0025 UTC
Wind: from the NE (050 degrees) at 10 MPH (9 KT):0
Visibility: greater than 7 mile(s):0 Temperature: 62 F (17 C) Dew Point: 53 F (12 C) Relative Humidity: 72% Pressure (altimeter): 30.15 in. Hg (1021 hPa)
ob: EHAM 240025Z 05009KT CAVOK 17/12 Q1021 NOSIG cycle: 0
Sunrise: 03:37 Sunset: 19:38 (UTC)

Malaga / Aeropuerto, Spain (LEMG) 36-40N 004-29W 7M May 23, 2018 - 08:30 PM EDT / 2018.05.24 0030 UTC
Wind: from the W (270 degrees) at 3 MPH (3 KT):0
Visibility: greater than 7 mile(s):0 Temperature: 66 F (19 C) Dew Point: 48 F (9 C) Relative Humidity: 52% Pressure (altimeter): 29.94 in. Hg (1014 hPa)
ob: LEMG 240030Z 27003KT CAVOK 19/09 Q1014 NOSIG cycle: 0
Sunrise: 05:07 Sunset: 19:22 (UTC)

TAF:2018/05/23 18:27 TAF LEMG 231700Z 2318/2418 13006KT 9999 SCT040 TX25/2413Z TN15/2405Z BECMG 2319/2323 30004KT BECMG 2408/2410 17008KT

Previous Pireps for this route
Date Aircraft Flight time Fuel used Landing rate On time
2017-08-22A3212.2913440-832Yes
2017-09-01A3212.34878702000-551No
(pireps marked green are flown by you)

Route map